sensor_id;sensor_type;location;lat;lon;timestamp;pressure;altitude;pressure_sealevel;temperature;humidity
69318;BME280;56457;52.190;4.440;2023-04-23T00:00:24;100852.41;;;8.54;100.00
69318;BME280;56457;52.190;4.440;2023-04-23T00:01:27;100850.66;;;8.56;100.00
69318;BME280;56457;52.190;4.440;2023-04-23T00:02:28;100864.63;;;8.59;100.00
69318;BME280;56457;52.190;4.440;2023-04-23T00:03:29;100845.44;;;8.62;100.00
69318;BME280;56457;52.190;4.440;2023-04-23T00:04:32;100851.53;;;8.59;100.00
69318;BME280;56457;52.190;4.440;2023-04-23T00:05:37;100862.88;;;8.60;100.00
69318;BME280;56457;52.190;4.440;2023-04-23T00:06:38;100848.06;;;8.60;100.00
69318;BME280;56457;52.190;4.440;2023-04-23T00:07:40;100855.91;;;8.63;100.00
69318;BME280;56457;52.190;4.440;2023-04-23T00:08:41;100851.53;;;8.62;100.00
69318;BME280;56457;52.190;4.440;2023-04-23T00:09:42;100848.91;;;8.62;100.00
69318;BME280;56457;52.190;4.440;2023-04-23T00:10:45;100852.41;;;8.63;100.00
69318;BME280;56457;52.190;4.440;2023-04-23T00:11:45;100848.06;;;8.60;100.00
69318;BME280;56457;52.190;4.440;2023-04-23T00:12:47;100842.84;;;8.63;100.00
69318;BME280;56457;52.190;4.440;2023-04-23T00:13:48;100841.06;;;8.62;100.00
69318;BME280;56457;52.190;4.440;2023-04-23T00:14:49;100845.44;;;8.62;100.00
69318;BME280;56457;52.190;4.440;2023-04-23T00:15:50;100845.44;;;8.62;100.00
69318;BME280;56457;52.190;4.440;2023-04-23T00:16:51;100847.19;;;8.61;100.00
69318;BME280;56457;52.190;4.440;2023-04-23T00:17:52;100841.94;;;8.60;100.00
69318;BME280;56457;52.190;4.440;2023-04-23T00:18:53;100839.31;;;8.63;100.00
69318;BME280;56457;52.190;4.440;2023-04-23T00:19:53;100836.72;;;8.63;100.00
69318;BME280;56457;52.190;4.440;2023-04-23T00:20:54;100840.19;;;8.62;100.00
69318;BME280;56457;52.190;4.440;2023-04-23T00:21:54;100838.47;;;8.61;100.00
69318;BME280;56457;52.190;4.440;2023-04-23T00:22:55;100841.06;;;8.61;100.00
69318;BME280;56457;52.190;4.440;2023-04-23T00:23:56;100832.38;;;8.63;100.00
69318;BME280;56457;52.190;4.440;2023-04-23T00:25:00;100835.88;;;8.64;100.00
69318;BME280;56457;52.190;4.440;2023-04-23T00:26:00;100834.09;;;8.63;100.00
69318;BME280;56457;52.190;4.440;2023-04-23T00:27:01;100830.59;;;8.62;100.00
69318;BME280;56457;52.190;4.440;2023-04-23T00:28:02;100838.47;;;8.61;100.00
69318;BME280;56457;52.190;4.440;2023-04-23T00:29:03;100824.50;;;8.62;100.00
69318;BME280;56457;52.190;4.440;2023-04-23T00:30:03;100828.88;;;8.65;100.00
69318;BME280;56457;52.190;4.440;2023-04-23T00:31:04;100827.13;;;8.67;100.00
69318;BME280;56457;52.190;4.440;2023-04-23T00:32:04;100828.88;;;8.68;100.00
69318;BME280;56457;52.190;4.440;2023-04-23T00:33:05;100830.59;;;8.69;100.00
69318;BME280;56457;52.190;4.440;2023-04-23T00:34:05;100827.13;;;8.68;100.00
69318;BME280;56457;52.190;4.440;2023-04-23T00:35:05;100820.16;;;8.67;100.00
69318;BME280;56457;52.190;4.440;2023-04-23T00:36:06;100822.75;;;8.69;100.00
69318;BME280;56457;52.190;4.440;2023-04-23T00:37:07;100822.78;;;8.70;100.00
69318;BME280;56457;52.190;4.440;2023-04-23T00:38:07;100820.16;;;8.73;100.00
69318;BME280;56457;52.190;4.440;2023-04-23T00:39:08;100815.81;;;8.72;100.00
69318;BME280;56457;52.190;4.440;2023-04-23T00:40:10;100821.91;;;8.73;100.00
69318;BME280;56457;52.190;4.440;2023-04-23T00:41:10;100816.69;;;8.76;100.00
69318;BME280;56457;52.190;4.440;2023-04-23T00:42:11;100809.72;;;8.76;100.00
69318;BME280;56457;52.190;4.440;2023-04-23T00:43:12;100814.91;;;8.75;100.00
69318;BME280;56457;52.190;4.440;2023-04-23T00:44:14;100811.41;;;8.80;100.00
69318;BME280;56457;52.190;4.440;2023-04-23T00:45:15;100812.31;;;8.82;100.00
69318;BME280;56457;52.190;4.440;2023-04-23T00:46:15;100814.91;;;8.85;100.00
69318;BME280;56457;52.190;4.440;2023-04-23T00:47:16;100800.94;;;8.82;100.00
69318;BME280;56457;52.190;4.440;2023-04-23T00:48:17;100804.47;;;8.84;100.00
69318;BME280;56457;52.190;4.440;2023-04-23T00:49:17;100804.47;;;8.84;100.00
69318;BME280;56457;52.190;4.440;2023-04-23T00:50:18;100806.19;;;8.85;100.00
69318;BME280;56457;52.190;4.440;2023-04-23T00:51:20;100807.94;;;8.83;100.00
69318;BME280;56457;52.190;4.440;2023-04-23T00:52:20;100797.47;;;8.80;100.00
69318;BME280;56457;52.190;4.440;2023-04-23T00:53:21;100806.22;;;8.76;100.00
69318;BME280;56457;52.190;4.440;2023-04-23T00:54:21;100797.50;;;8.72;100.00
69318;BME280;56457;52.190;4.440;2023-04-23T00:55:22;100799.22;;;8.67;100.00
69318;BME280;56457;52.190;4.440;2023-04-23T00:56:22;100809.69;;;8.67;100.00
69318;BME280;56457;52.190;4.440;2023-04-23T00:57:23;100798.38;;;8.65;100.00
69318;BME280;56457;52.190;4.440;2023-04-23T00:58:23;100808.84;;;8.65;100.00
69318;BME280;56457;52.190;4.440;2023-04-23T00:59:24;100796.63;;;8.66;100.00
69318;BME280;56457;52.190;4.440;2023-04-23T01:00:25;100805.31;;;8.63;100.00
69318;BME280;56457;52.190;4.440;2023-04-23T01:01:25;100802.72;;;8.61;100.00
69318;BME280;56457;52.190;4.440;2023-04-23T01:02:25;100803.59;;;8.62;100.00
69318;BME280;56457;52.190;4.440;2023-04-23T01:03:27;100796.63;;;8.61;100.00
69318;BME280;56457;52.190;4.440;2023-04-23T01:04:28;100798.38;;;8.59;100.00
69318;BME280;56457;52.190;4.440;2023-04-23T01:05:30;100802.72;;;8.55;100.00
69318;BME280;56457;52.190;4.440;2023-04-23T01:06:30;100800.13;;;8.54;100.00
69318;BME280;56457;52.190;4.440;2023-04-23T01:07:34;100795.75;;;8.54;100.00
69318;BME280;56457;52.190;4.440;2023-04-23T01:08:34;100799.22;;;8.50;100.00
69318;BME280;56457;52.190;4.440;2023-04-23T01:09:35;100793.16;;;8.51;100.00
69318;BME280;56457;52.190;4.440;2023-04-23T01:10:35;100795.75;;;8.50;100.00
69318;BME280;56457;52.190;4.440;2023-04-23T01:11:37;100794.00;;;8.50;100.00
69318;BME280;56457;52.190;4.440;2023-04-23T01:12:38;100803.63;;;8.51;100.00
69318;BME280;56457;52.190;4.440;2023-04-23T01:13:38;100801.00;;;8.51;100.00
69318;BME280;56457;52.190;4.440;2023-04-23T01:14:39;100798.38;;;8.54;100.00
69318;BME280;56457;52.190;4.440;2023-04-23T01:15:41;100794.00;;;8.55;100.00
69318;BME280;56457;52.190;4.440;2023-04-23T01:16:41;100799.22;;;8.55;100.00
69318;BME280;56457;52.190;4.440;2023-04-23T01:17:41;100799.25;;;8.58;100.00
69318;BME280;56457;52.190;4.440;2023-04-23T01:18:42;100792.25;;;8.55;100.00
69318;BME280;56457;52.190;4.440;2023-04-23T01:19:43;100796.63;;;8.58;100.00
69318;BME280;56457;52.190;4.440;2023-04-23T01:20:44;100794.00;;;8.59;100.00
69318;BME280;56457;52.190;4.440;2023-04-23T01:21:44;100789.66;;;8.61;100.00
69318;BME280;56457;52.190;4.440;2023-04-23T01:22:44;100785.28;;;8.60;100.00
69318;BME280;56457;52.190;4.440;2023-04-23T01:23:45;100787.91;;;8.59;100.00
69318;BME280;56457;52.190;4.440;2023-04-23T01:24:45;100789.66;;;8.60;100.00
69318;BME280;56457;52.190;4.440;2023-04-23T01:25:46;100794.00;;;8.59;100.00
69318;BME280;56457;52.190;4.440;2023-04-23T01:26:47;100787.03;;;8.61;100.00
69318;BME280;56457;52.190;4.440;2023-04-23T01:27:48;100791.41;;;8.59;100.00
69318;BME280;56457;52.190;4.440;2023-04-23T01:28:48;100789.66;;;8.60;100.00
69318;BME280;56457;52.190;4.440;2023-04-23T01:29:49;100790.53;;;8.57;100.00
69318;BME280;56457;52.190;4.440;2023-04-23T01:30:49;100790.53;;;8.57;100.00
69318;BME280;56457;52.190;4.440;2023-04-23T01:31:50;100793.16;;;8.59;100.00
69318;BME280;56457;52.190;4.440;2023-04-23T01:32:50;100788.78;;;8.59;100.00
69318;BME280;56457;52.190;4.440;2023-04-23T01:33:51;100786.16;;;8.56;100.00
69318;BME280;56457;52.190;4.440;2023-04-23T01:34:53;100789.66;;;8.58;100.00
69318;BME280;56457;52.190;4.440;2023-04-23T01:35:55;100785.31;;;8.57;100.00
69318;BME280;56457;52.190;4.440;2023-04-23T01:36:56;100780.94;;;8.59;100.00
69318;BME280;56457;52.190;4.440;2023-04-23T01:37:58;100780.94;;;8.58;100.00
69318;BME280;56457;52.190;4.440;2023-04-23T01:38:58;100780.06;;;8.57;100.00
69318;BME280;56457;52.190;4.440;2023-04-23T01:39:59;100786.19;;;8.58;100.00
69318;BME280;56457;52.190;4.440;2023-04-23T01:41:00;100787.03;;;8.58;100.00
69318;BME280;56457;52.190;4.440;2023-04-23T01:42:00;100779.19;;;8.58;100.00
69318;BME280;56457;52.190;4.440;2023-04-23T01:43:01;100773.97;;;8.58;100.00
69318;BME280;56457;52.190;4.440;2023-04-23T01:44:02;100781.81;;;8.58;100.00
69318;BME280;56457;52.190;4.440;2023-04-23T01:45:02;100783.56;;;8.59;100.00
69318;BME280;56457;52.190;4.440;2023-04-23T01:46:03;100783.56;;;8.59;100.00
69318;BME280;56457;52.190;4.440;2023-04-23T01:47:03;100780.91;;;8.62;100.00
69318;BME280;56457;52.190;4.440;2023-04-23T01:48:04;100777.44;;;8.65;100.00
69318;BME280;56457;52.190;4.440;2023-04-23T01:49:04;100776.56;;;8.61;100.00
69318;BME280;56457;52.190;4.440;2023-04-23T01:50:05;100787.03;;;8.68;100.00
69318;BME280;56457;52.190;4.440;2023-04-23T01:51:06;100775.69;;;8.69;100.00
69318;BME280;56457;52.190;4.440;2023-04-23T01:52:07;100774.81;;;8.67;100.00
69318;BME280;56457;52.190;4.440;2023-04-23T01:53:07;100776.56;;;8.68;100.00
69318;BME280;56457;52.190;4.440;2023-04-23T01:54:07;100777.44;;;8.68;100.00
69318;BME280;56457;52.190;4.440;2023-04-23T01:55:08;100770.47;;;8.70;100.00
69318;BME280;56457;52.190;4.440;2023-04-23T01:56:08;100774.84;;;8.76;100.00
69318;BME280;56457;52.190;4.440;2023-04-23T01:57:09;100779.19;;;8.78;100.00
69318;BME280;56457;52.190;4.440;2023-04-23T01:58:10;100778.28;;;8.75;100.00
69318;BME280;56457;52.190;4.440;2023-04-23T01:59:10;100778.28;;;8.75;100.00
69318;BME280;56457;52.190;4.440;2023-04-23T02:00:11;100781.78;;;8.78;100.00
69318;BME280;56457;52.190;4.440;2023-04-23T02:01:11;100782.66;;;8.77;100.00
69318;BME280;56457;52.190;4.440;2023-04-23T02:02:12;100785.28;;;8.79;100.00
69318;BME280;56457;52.190;4.440;2023-04-23T02:03:12;100779.19;;;8.78;100.00
69318;BME280;56457;52.190;4.440;2023-04-23T02:04:13;100773.94;;;8.78;100.00
69318;BME280;56457;52.190;4.440;2023-04-23T02:05:15;100779.16;;;8.80;100.00
69318;BME280;56457;52.190;4.440;2023-04-23T02:06:16;100771.31;;;8.78;100.00
69318;BME280;56457;52.190;4.440;2023-04-23T02:07:16;100772.16;;;8.82;100.00
69318;BME280;56457;52.190;4.440;2023-04-23T02:08:17;100773.06;;;8.81;100.00
69318;BME280;56457;52.190;4.440;2023-04-23T02:09:17;100770.44;;;8.79;100.00
69318;BME280;56457;52.190;4.440;2023-04-23T02:10:17;100775.69;;;8.79;100.00
69318;BME280;56457;52.190;4.440;2023-04-23T02:11:18;100774.81;;;8.73;100.00
69318;BME280;56457;52.190;4.440;2023-04-23T02:12:18;100772.19;;;8.73;100.00
69318;BME280;56457;52.190;4.440;2023-04-23T02:13:19;100759.13;;;8.71;100.00
69318;BME280;56457;52.190;4.440;2023-04-23T02:14:19;100764.38;;;8.70;100.00
69318;BME280;56457;52.190;4.440;2023-04-23T02:15:20;100766.97;;;8.67;100.00
69318;BME280;56457;52.190;4.440;2023-04-23T02:16:20;100772.22;;;8.71;100.00
69318;BME280;56457;52.190;4.440;2023-04-23T02:17:23;100768.72;;;8.69;100.00
69318;BME280;56457;52.190;4.440;2023-04-23T02:18:24;100767.88;;;8.70;100.00
69318;BME280;56457;52.190;4.440;2023-04-23T02:19:24;100766.97;;;8.73;100.00
69318;BME280;56457;52.190;4.440;2023-04-23T02:20:25;100766.97;;;8.73;100.00
69318;BME280;56457;52.190;4.440;2023-04-23T02:21:25;100766.09;;;8.72;100.00
69318;BME280;56457;52.190;4.440;2023-04-23T02:22:26;100768.72;;;8.77;100.00
69318;BME280;56457;52.190;4.440;2023-04-23T02:23:27;100765.22;;;8.79;100.00
69318;BME280;56457;52.190;4.440;2023-04-23T02:24:27;100764.34;;;8.77;100.00
69318;BME280;56457;52.190;4.440;2023-04-23T02:25:28;100762.59;;;8.79;100.00
69318;BME280;56457;52.190;4.440;2023-04-23T02:26:28;100762.59;;;8.79;100.00
69318;BME280;56457;52.190;4.440;2023-04-23T02:27:29;100758.25;;;8.78;100.00
69318;BME280;56457;52.190;4.440;2023-04-23T02:28:29;100762.59;;;8.79;100.00
69318;BME280;56457;52.190;4.440;2023-04-23T02:29:30;100768.69;;;8.75;100.00
69318;BME280;56457;52.190;4.440;2023-04-23T02:30:30;100769.59;;;8.76;100.00
69318;BME280;56457;52.190;4.440;2023-04-23T02:31:31;100767.84;;;8.75;100.00
69318;BME280;56457;52.190;4.440;2023-04-23T02:32:31;100772.22;;;8.76;100.00
69318;BME280;56457;52.190;4.440;2023-04-23T02:33:32;100771.31;;;8.78;100.00
69318;BME280;56457;52.190;4.440;2023-04-23T02:34:32;100767.81;;;8.81;100.00
69318;BME280;56457;52.190;4.440;2023-04-23T02:35:32;100766.94;;;8.82;100.00
69318;BME280;56457;52.190;4.440;2023-04-23T02:36:33;100770.44;;;8.81;100.00
69318;BME280;56457;52.190;4.440;2023-04-23T02:37:33;100770.47;;;8.78;100.00
69318;BME280;56457;52.190;4.440;2023-04-23T02:38:34;100759.13;;;8.79;100.00
69318;BME280;56457;52.190;4.440;2023-04-23T02:39:34;100763.47;;;8.75;100.00
69318;BME280;56457;52.190;4.440;2023-04-23T02:40:34;100767.84;;;8.75;100.00
69318;BME280;56457;52.190;4.440;2023-04-23T02:41:35;100768.72;;;8.77;100.00
69318;BME280;56457;52.190;4.440;2023-04-23T02:42:36;100771.34;;;8.77;100.00
69318;BME280;56457;52.190;4.440;2023-04-23T02:43:36;100766.97;;;8.79;100.00
69318;BME280;56457;52.190;4.440;2023-04-23T02:44:36;100762.59;;;8.79;100.00
69318;BME280;56457;52.190;4.440;2023-04-23T02:45:37;100764.34;;;8.79;100.00
69318;BME280;56457;52.190;4.440;2023-04-23T02:46:37;100761.75;;;8.76;100.00
69318;BME280;56457;52.190;4.440;2023-04-23T02:47:38;100765.22;;;8.73;100.00
69318;BME280;56457;52.190;4.440;2023-04-23T02:48:39;100772.19;;;8.73;100.00
69318;BME280;56457;52.190;4.440;2023-04-23T02:49:40;100766.13;;;8.71;100.00
69318;BME280;56457;52.190;4.440;2023-04-23T02:50:40;100767.84;;;8.69;100.00
69318;BME280;56457;52.190;4.440;2023-04-23T02:51:40;100759.16;;;8.70;100.00
69318;BME280;56457;52.190;4.440;2023-04-23T02:52:41;100765.22;;;8.73;100.00
69318;BME280;56457;52.190;4.440;2023-04-23T02:53:41;100770.47;;;8.70;100.00
69318;BME280;56457;52.190;4.440;2023-04-23T02:54:42;100767.84;;;8.69;100.00
69318;BME280;56457;52.190;4.440;2023-04-23T02:55:42;100764.38;;;8.71;100.00
69318;BME280;56457;52.190;4.440;2023-04-23T02:56:43;100765.22;;;8.73;100.00
69318;BME280;56457;52.190;4.440;2023-04-23T02:57:43;100760.84;;;8.69;100.00
69318;BME280;56457;52.190;4.440;2023-04-23T02:58:44;100763.47;;;8.68;100.00
69318;BME280;56457;52.190;4.440;2023-04-23T02:59:44;100765.25;;;8.66;100.00
69318;BME280;56457;52.190;4.440;2023-04-23T03:00:45;100763.50;;;8.65;100.00
69318;BME280;56457;52.190;4.440;2023-04-23T03:01:45;100767.00;;;8.63;100.00
69318;BME280;56457;52.190;4.440;2023-04-23T03:02:46;100764.38;;;8.63;100.00
69318;BME280;56457;52.190;4.440;2023-04-23T03:03:46;100761.78;;;8.63;100.00
69318;BME280;56457;52.190;4.440;2023-04-23T03:04:47;100759.13;;;8.62;100.00
69318;BME280;56457;52.190;4.440;2023-04-23T03:05:47;100760.00;;;8.66;100.00
69318;BME280;56457;52.190;4.440;2023-04-23T03:06:47;100757.38;;;8.62;100.00
69318;BME280;56457;52.190;4.440;2023-04-23T03:07:48;100753.91;;;8.63;100.00
69318;BME280;56457;52.190;4.440;2023-04-23T03:08:48;100754.78;;;8.61;100.00
69318;BME280;56457;52.190;4.440;2023-04-23T03:09:49;100753.03;;;8.60;100.00
69318;BME280;56457;52.190;4.440;2023-04-23T03:10:49;100755.66;;;8.60;100.00
69318;BME280;56457;52.190;4.440;2023-04-23T03:11:49;100763.50;;;8.57;100.00
69318;BME280;56457;52.190;4.440;2023-04-23T03:12:50;100744.31;;;8.56;100.00
69318;BME280;56457;52.190;4.440;2023-04-23T03:13:50;100748.69;;;8.57;100.00
69318;BME280;56457;52.190;4.440;2023-04-23T03:14:51;100751.31;;;8.54;100.00
69318;BME280;56457;52.190;4.440;2023-04-23T03:15:51;100746.09;;;8.57;100.00
69318;BME280;56457;52.190;4.440;2023-04-23T03:16:52;100753.06;;;8.58;100.00
69318;BME280;56457;52.190;4.440;2023-04-23T03:17:52;100748.69;;;8.60;100.00
69318;BME280;56457;52.190;4.440;2023-04-23T03:18:53;100741.69;;;8.61;100.00
69318;BME280;56457;52.190;4.440;2023-04-23T03:19:53;100750.41;;;8.63;100.00
69318;BME280;56457;52.190;4.440;2023-04-23T03:20:53;100743.44;;;8.62;100.00
69318;BME280;56457;52.190;4.440;2023-04-23T03:21:54;100743.44;;;8.62;100.00
69318;BME280;56457;52.190;4.440;2023-04-23T03:22:54;100740.81;;;8.62;100.00
69318;BME280;56457;52.190;4.440;2023-04-23T03:23:55;100746.94;;;8.66;100.00
69318;BME280;56457;52.190;4.440;2023-04-23T03:24:55;100743.44;;;8.65;100.00
69318;BME280;56457;52.190;4.440;2023-04-23T03:25:56;100743.44;;;8.67;100.00
69318;BME280;56457;52.190;4.440;2023-04-23T03:26:57;100745.19;;;8.68;100.00
69318;BME280;56457;52.190;4.440;2023-04-23T03:27:57;100736.44;;;8.69;100.00
69318;BME280;56457;52.190;4.440;2023-04-23T03:28:58;100739.94;;;8.68;100.00
69318;BME280;56457;52.190;4.440;2023-04-23T03:29:58;100742.56;;;8.69;100.00
69318;BME280;56457;52.190;4.440;2023-04-23T03:30:58;100742.56;;;8.71;100.00
69318;BME280;56457;52.190;4.440;2023-04-23T03:31:59;100733.81;;;8.75;100.00
69318;BME280;56457;52.190;4.440;2023-04-23T03:32:59;100739.94;;;8.78;100.00
69318;BME280;56457;52.190;4.440;2023-04-23T03:34:01;100743.44;;;8.77;100.00
69318;BME280;56457;52.190;4.440;2023-04-23T03:35:02;100743.41;;;8.79;100.00
69318;BME280;56457;52.190;4.440;2023-04-23T03:36:02;100743.41;;;8.82;100.00
69318;BME280;56457;52.190;4.440;2023-04-23T03:37:03;100742.53;;;8.86;100.00
69318;BME280;56457;52.190;4.440;2023-04-23T03:38:03;100746.88;;;8.87;100.00
69318;BME280;56457;52.190;4.440;2023-04-23T03:40:41;100739.91;;;8.92;100.00
69318;BME280;56457;52.190;4.440;2023-04-23T03:41:42;100742.50;;;8.97;100.00
69318;BME280;56457;52.190;4.440;2023-04-23T03:42:42;100744.25;;;8.96;100.00
69318;BME280;56457;52.190;4.440;2023-04-23T03:43:43;100743.38;;;8.99;100.00
69318;BME280;56457;52.190;4.440;2023-04-23T03:44:43;100745.13;;;9.01;100.00
69318;BME280;56457;52.190;4.440;2023-04-23T03:45:43;100741.63;;;9.02;100.00
69318;BME280;56457;52.190;4.440;2023-04-23T03:46:44;100734.66;;;9.01;100.00
69318;BME280;56457;52.190;4.440;2023-04-23T03:47:44;100742.47;;;9.04;100.00
69318;BME280;56457;52.190;4.440;2023-04-23T03:48:45;100735.50;;;9.03;100.00
69318;BME280;56457;52.190;4.440;2023-04-23T03:49:45;100741.63;;;9.01;100.00
69318;BME280;56457;52.190;4.440;2023-04-23T03:50:45;100740.75;;;9.03;100.00
69318;BME280;56457;52.190;4.440;2023-04-23T03:51:46;100739.00;;;9.04;100.00
69318;BME280;56457;52.190;4.440;2023-04-23T03:52:46;100741.63;;;9.07;100.00
69318;BME280;56457;52.190;4.440;2023-04-23T03:53:47;100738.13;;;9.08;100.00
69318;BME280;56457;52.190;4.440;2023-04-23T03:54:47;100735.50;;;9.09;100.00
69318;BME280;56457;52.190;4.440;2023-04-23T03:55:48;100738.09;;;9.09;100.00
69318;BME280;56457;52.190;4.440;2023-04-23T03:56:48;100730.28;;;9.08;100.00
69318;BME280;56457;52.190;4.440;2023-04-23T03:57:49;100725.03;;;9.08;100.00
69318;BME280;56457;52.190;4.440;2023-04-23T03:58:49;100727.63;;;9.06;100.00
69318;BME280;56457;52.190;4.440;2023-04-23T03:59:49;100732.03;;;9.07;100.00
69318;BME280;56457;52.190;4.440;2023-04-23T04:00:50;100732.00;;;9.09;100.00
69318;BME280;56457;52.190;4.440;2023-04-23T04:01:50;100725.00;;;9.11;100.00
69318;BME280;56457;52.190;4.440;2023-04-23T04:02:51;100729.38;;;9.10;100.00
69318;BME280;56457;52.190;4.440;2023-04-23T04:03:51;100725.03;;;9.08;100.00
69318;BME280;56457;52.190;4.440;2023-04-23T04:04:51;100727.63;;;9.09;100.00
69318;BME280;56457;52.190;4.440;2023-04-23T04:05:53;100723.28;;;9.08;100.00
69318;BME280;56457;52.190;4.440;2023-04-23T04:06:54;100721.53;;;9.09;100.00
69318;BME280;56457;52.190;4.440;2023-04-23T04:07:54;100733.75;;;9.08;100.00
69318;BME280;56457;52.190;4.440;2023-04-23T04:08:55;100729.38;;;9.10;100.00
69318;BME280;56457;52.190;4.440;2023-04-23T04:09:55;100732.84;;;9.12;100.00
69318;BME280;56457;52.190;4.440;2023-04-23T04:10:55;100735.50;;;9.09;100.00
69318;BME280;56457;52.190;4.440;2023-04-23T04:11:56;100728.50;;;9.14;100.00
69318;BME280;56457;52.190;4.440;2023-04-23T04:12:56;100730.22;;;9.15;100.00
69318;BME280;56457;52.190;4.440;2023-04-23T04:13:56;100733.75;;;9.13;100.00
69318;BME280;56457;52.190;4.440;2023-04-23T04:14:57;100729.38;;;9.15;100.00
69318;BME280;56457;52.190;4.440;2023-04-23T04:15:57;100736.31;;;9.17;100.00
69318;BME280;56457;52.190;4.440;2023-04-23T04:16:58;100734.59;;;9.16;100.00
69318;BME280;56457;52.190;4.440;2023-04-23T04:17:58;100735.44;;;9.18;100.00
69318;BME280;56457;52.190;4.440;2023-04-23T04:19:00;100729.34;;;9.16;100.00
69318;BME280;56457;52.190;4.440;2023-04-23T04:20:00;100731.97;;;9.16;100.00
69318;BME280;56457;52.190;4.440;2023-04-23T04:21:01;100730.22;;;9.15;100.00
69318;BME280;56457;52.190;4.440;2023-04-23T04:22:01;100735.47;;;9.17;100.00
69318;BME280;56457;52.190;4.440;2023-04-23T04:23:02;100724.97;;;9.22;100.00
69318;BME280;56457;52.190;4.440;2023-04-23T04:24:03;100720.59;;;9.22;100.00
69318;BME280;56457;52.190;4.440;2023-04-23T04:25:06;100721.47;;;9.24;100.00
69318;BME280;56457;52.190;4.440;2023-04-23T04:26:07;100716.22;;;9.24;100.00
69318;BME280;56457;52.190;4.440;2023-04-23T04:27:07;100723.22;;;9.22;100.00
69318;BME280;56457;52.190;4.440;2023-04-23T04:28:08;100724.97;;;9.23;100.00
69318;BME280;56457;52.190;4.440;2023-04-23T04:29:10;100726.72;;;9.23;100.00
69318;BME280;56457;52.190;4.440;2023-04-23T04:30:11;100727.56;;;9.23;100.00
69318;BME280;56457;52.190;4.440;2023-04-23T04:31:12;100723.22;;;9.22;100.00
69318;BME280;56457;52.190;4.440;2023-04-23T04:32:14;100728.47;;;9.21;100.00
69318;BME280;56457;52.190;4.440;2023-04-23T04:33:15;100721.50;;;9.20;100.00
69318;BME280;56457;52.190;4.440;2023-04-23T04:34:15;100719.72;;;9.23;100.00
69318;BME280;56457;52.190;4.440;2023-04-23T04:35:17;100728.44;;;9.24;100.00
69318;BME280;56457;52.190;4.440;2023-04-23T04:36:17;100721.47;;;9.24;100.00
69318;BME280;56457;52.190;4.440;2023-04-23T04:37:17;100726.72;;;9.23;100.00
69318;BME280;56457;52.190;4.440;2023-04-23T04:38:19;100735.44;;;9.23;100.00
69318;BME280;56457;52.190;4.440;2023-04-23T04:39:21;100730.19;;;9.23;100.00
69318;BME280;56457;52.190;4.440;2023-04-23T04:40:21;100730.19;;;9.26;100.00
69318;BME280;56457;52.190;4.440;2023-04-23T04:41:22;100728.44;;;9.25;100.00
69318;BME280;56457;52.190;4.440;2023-04-23T04:42:24;100726.69;;;9.27;100.00
69318;BME280;56457;52.190;4.440;2023-04-23T04:43:24;100728.44;;;9.27;100.00
69318;BME280;56457;52.190;4.440;2023-04-23T04:44:25;100725.84;;;9.27;100.00
69318;BME280;56457;52.190;4.440;2023-04-23T04:45:26;100720.59;;;9.28;100.00
69318;BME280;56457;52.190;4.440;2023-04-23T04:46:26;100724.94;;;9.29;100.00
69318;BME280;56457;52.190;4.440;2023-04-23T04:47:28;100727.56;;;9.29;100.00
69318;BME280;56457;52.190;4.440;2023-04-23T04:48:28;100722.31;;;9.31;100.00
69318;BME280;56457;52.190;4.440;2023-04-23T04:49:28;100725.78;;;9.31;100.00
69318;BME280;56457;52.190;4.440;2023-04-23T04:50:29;100722.31;;;9.34;100.00
69318;BME280;56457;52.190;4.440;2023-04-23T04:51:29;100725.78;;;9.34;100.00
69318;BME280;56457;52.190;4.440;2023-04-23T04:52:30;100727.50;;;9.37;100.00
69318;BME280;56457;52.190;4.440;2023-04-23T04:53:30;100724.91;;;9.35;100.00
69318;BME280;56457;52.190;4.440;2023-04-23T04:54:31;100723.16;;;9.34;100.00
69318;BME280;56457;52.190;4.440;2023-04-23T04:55:31;100726.66;;;9.36;100.00
69318;BME280;56457;52.190;4.440;2023-04-23T04:56:32;100722.28;;;9.37;100.00
69318;BME280;56457;52.190;4.440;2023-04-23T04:57:33;100722.28;;;9.37;100.00
69318;BME280;56457;52.190;4.440;2023-04-23T04:58:33;100725.72;;;9.43;100.00
69318;BME280;56457;52.190;4.440;2023-04-23T04:59:34;100710.91;;;9.44;100.00
69318;BME280;56457;52.190;4.440;2023-04-23T05:00:34;100715.25;;;9.47;100.00
69318;BME280;56457;52.190;4.440;2023-04-23T05:01:34;100720.47;;;9.48;100.00
69318;BME280;56457;52.190;4.440;2023-04-23T05:02:36;100718.75;;;9.47;100.00
69318;BME280;56457;52.190;4.440;2023-04-23T05:03:36;100715.25;;;9.47;100.00
69318;BME280;56457;52.190;4.440;2023-04-23T05:04:36;100722.22;;;9.51;100.00
69318;BME280;56457;52.190;4.440;2023-04-23T05:05:37;100719.59;;;9.49;100.00
69318;BME280;56457;52.190;4.440;2023-04-23T05:06:37;100727.44;;;9.49;100.00
69318;BME280;56457;52.190;4.440;2023-04-23T05:07:38;100725.72;;;9.48;100.00
69318;BME280;56457;52.190;4.440;2023-04-23T05:08:38;100724.84;;;9.51;100.00
69318;BME280;56457;52.190;4.440;2023-04-23T05:09:39;100726.59;;;9.49;100.00
69318;BME280;56457;52.190;4.440;2023-04-23T05:10:39;100723.09;;;9.51;100.00
69318;BME280;56457;52.190;4.440;2023-04-23T05:11:40;100730.97;;;9.51;100.00
69318;BME280;56457;52.190;4.440;2023-04-23T05:12:41;100724.84;;;9.52;100.00
69318;BME280;56457;52.190;4.440;2023-04-23T05:13:42;100730.09;;;9.51;100.00
69318;BME280;56457;52.190;4.440;2023-04-23T05:14:42;100730.94;;;9.53;100.00
69318;BME280;56457;52.190;4.440;2023-04-23T05:15:44;100726.56;;;9.55;100.00
69318;BME280;56457;52.190;4.440;2023-04-23T05:16:44;100725.69;;;9.54;100.00
69318;BME280;56457;52.190;4.440;2023-04-23T05:17:45;100723.94;;;9.50;100.00
69318;BME280;56457;52.190;4.440;2023-04-23T05:18:45;100719.63;;;9.46;100.00